Newport, OR

5:53 AM PDT on October 21, 2014 (GMT -0700)
K7BAW-Agate Beach | Change Station
CLOSE
Current Station
Personal Weather Station
Location: Newport, OR
Elevation: 75 ft
Nearby Weather Stations

Elev 75 ft 44.66 °N, 124.05 °W | Updated 52 seconds ago

Partly Cloudy
Partly Cloudy
56.4 °F
Feels Like 56.4 °F
N
0.0
Wind Variable Wind from SE
Gusts 6.0 mph

Today
High -- | Low -- °F
--% Chance of Precip.
Yesterday
High -- | Low -- °F
Precip. -- in
7:39 AM 6:21 PM
Waning Crescent, 6% visible
Pressure 29.97 in
Visibility 5.0 miles
Clouds Scattered Clouds 1000 ft
Mostly Cloudy 2300 ft
Mostly Cloudy 2900 ft
Dew Point 56 °F
Humidity 97%
Rainfall 0.05 in
Snow Depth Not available.
UV 0 out of 12
Pollen .60 out of 12
Air Quality Not available.
Flu Activity Sporadic
METAR KONP 211235Z AUTO 19013G18KT 5SM BR SCT010 BKN023 BKN029 13/12 A2997 RMK AO2

More Conditions Fewer Conditions

Pressure 29.97 in
Visibility 5.0 miles
Clouds Scattered Clouds 1000 ft
Mostly Cloudy 2300 ft
Mostly Cloudy 2900 ft
Dew Point 56 °F
Humidity 97%
Rainfall 0.05 in
Snow Depth Not available.
UV 0 out of 12
Pollen .60 out of 12
Air Quality Not available.
Flu Activity Sporadic
METAR KONP 211235Z AUTO 19013G18KT 5SM BR SCT010 BKN023 BKN029 13/12 A2997 RMK AO2

More Conditions Fewer Conditions

10-Day Weather Forecast

Almanac

Astronomy

Oct. 21, 2014 Rise Set
Actual Time 7:39 AM PDT 6:21 PM PDT
Civil Twilight 7:09 AM PDT 6:50 PM PDT
Nautical Twilight 6:35 AM PDT 7:24 PM PDT
Astronomical Twilight 6:01 AM PDT 7:58 PM PDT
Moon 5:23 AM PDT 5:22 PM PDT
Length of Visible Light 11h 41m
Length of Day
10h 41m
Tomorrow will be 2m 56s shorter.
Waning Crescent, 6% of the Moon is Illuminated
Today
Waning Crescent
Oct 23
New
Oct 30
First Quarter
Nov 6
Full
Nov 14
Last Quarter

Today's Extremes

State Highs State Lows

Community

WunderPhotos

Upload Photos

1,763,649 photos uploaded!

Nearby

Snow Depth

Station Depth Elevation
Seine Creek 0 in 2000 ft
Little Meadows 0 in 4000 ft
Jump Off Joe 0 in 3500 ft
Daly Lake 0 in 3600 ft
Holland Meadows 0 in 4900 ft

Earthquake Activity

City Distance Mag. Time & Date
No recent earthquake activity has been reported nearby.
Minimum magnitude displayed is 2.5.

Coastal Water Temperatures

Place Temperature
South Beach, OR 60.1 °F
Charleston, OR 57.9 °F

Nearby Weather Stations